Federal Yukina — VRHN7 — position and weather

sailwx.info

Track history (hours):
 
Tides and Currents Weather Stations Pressure Air Temp Water Temp Dewpoint Dewpoint Depression Visibility Wind Speed Wind Dir Waves Ship Positions

Federal Yukina

Last reported at 2018-May-13 15:07 UTC. Time now 2018-May-22 19:30 UTC.
Position S 24°38' W 046°33'.
Warning: this ship's position is 9 days out of date.

Length 200 m; draft 6.1 m.

Type: Cargo ship. MMSI: 477959900.

Date/timePositionNaut miles runAvg speedWind from/ knotsBaromVisibWave heightAir tempDewpointWater temp
2018-May-13 15:07S 24°38' W 046°33'112.8
2018-May-13 15:00S 24°37' W 046°33'612.9
2018-May-13 14:30S 24°31' W 046°30'612.8
2018-May-13 14:00S 24°25' W 046°27'612.9
2018-May-13 13:30S 24°19' W 046°26'612.8
2018-May-13 13:00S 24°12' W 046°24'612.5
2018-May-13 12:30S 24°06' W 046°23'611.3
2018-May-13 12:00S 24°01' W 046°21'4 0.1
2018-May-12 01:05S 23°58' W 046°17'0 0.0
2018-May-12 00:41S 23°58' W 046°17'0 0.0
2018-May-12 00:23S 23°58' W 046°17'  
2018-May-08 16:57S 23°59' W 046°17'3 7.6
2018-May-08 16:30S 24°01' W 046°21'3 6.5
2018-May-08 16:00S 24°04' W 046°22'3 6.2
2018-May-08 15:30S 24°07' W 046°20'3 3.5
2018-May-08 14:44S 24°07' W 046°17'0 0.0
2018-May-08 14:17S 24°07' W 046°17'0 0.0
2018-May-08 13:41S 24°07' W 046°17'0 0.0
2018-May-08 13:26S 24°07' W 046°17'0 0.0
2018-May-08 12:29S 24°07' W 046°17'0 0.0
2018-May-08 11:20S 24°07' W 046°17'0 0.1
2018-May-08 10:59S 24°07' W 046°17'0 0.0
2018-May-08 10:23S 24°07' W 046°17'0 0.1
2018-May-08 09:53S 24°07' W 046°17'0 0.1
2018-May-08 09:20S 24°07' W 046°17'0 0.0
2018-May-08 08:56S 24°07' W 046°17'0 0.0
2018-May-08 08:29S 24°07' W 046°17'0 0.0
2018-May-08 07:44S 24°07' W 046°17'0 0.0
2018-May-08 07:11S 24°07' W 046°17'0 0.1
2018-May-08 06:41S 24°07' W 046°17'0 0.0
2018-May-08 06:29S 24°07' W 046°17'0 0.1
2018-May-08 05:59S 24°07' W 046°17'0 0.0
2018-May-08 05:29S 24°07' W 046°17'0 0.0
2018-May-08 04:59S 24°07' W 046°17'0 0.0
2018-May-08 04:29S 24°07' W 046°17'0 0.0
2018-May-08 03:59S 24°07' W 046°17'0 0.0
2018-May-08 03:29S 24°07' W 046°17'0 0.0
2018-May-08 02:53S 24°07' W 046°17'0 0.0
2018-May-08 02:29S 24°07' W 046°17'0 0.0
2018-May-08 01:59S 24°07' W 046°17'0 0.1
2018-May-08 01:29S 24°07' W 046°17'0 0.0
2018-May-08 00:59S 24°07' W 046°17'0 0.0
2018-May-08 00:29S 24°07' W 046°17'0 0.0
2018-May-07 23:59S 24°07' W 046°17'0 0.0
2018-May-07 23:26S 24°07' W 046°17'0 0.0
2018-May-07 22:59S 24°07' W 046°17'0 0.0
2018-May-07 22:26S 24°07' W 046°17'0 0.0
2018-May-07 21:59S 24°07' W 046°17'0 0.0
2018-May-07 21:29S 24°07' W 046°17'0 0.1
2018-May-07 20:59S 24°07' W 046°17'0 0.0
2018-May-07 20:29S 24°07' W 046°17'0 0.0
2018-May-07 19:53S 24°07' W 046°17'0 0.0
2018-May-07 19:26S 24°07' W 046°17'0 0.0
2018-May-07 18:59S 24°07' W 046°17'0 0.0
2018-May-07 18:29S 24°07' W 046°17'0 0.0
2018-May-07 17:56S 24°07' W 046°17'0 0.0
2018-May-07 17:20S 24°07' W 046°17'0 0.1
2018-May-07 16:59S 24°07' W 046°17'0 0.0
2018-May-07 16:23S 24°07' W 046°17'0 0.0
2018-May-07 15:59S 24°07' W 046°17'0 0.0
2018-May-07 15:29S 24°07' W 046°17'0 0.0
2018-May-07 14:47S 24°07' W 046°17'0 0.0
2018-May-07 14:29S 24°07' W 046°17'0 0.0
2018-May-07 13:59S 24°07' W 046°17'0 0.0
2018-May-07 13:29S 24°07' W 046°17'0 0.0
2018-May-07 12:59S 24°07' W 046°17'0 0.0
2018-May-07 12:29S 24°07' W 046°17'0 0.0
2018-May-07 11:59S 24°07' W 046°17'0 0.0
2018-May-07 11:29S 24°07' W 046°17'0 0.0
2018-May-07 10:53S 24°07' W 046°17'0 0.0
2018-May-07 10:29S 24°07' W 046°17'0 0.0
2018-May-07 09:59S 24°07' W 046°17'0 0.0
2018-May-07 09:26S 24°07' W 046°17'0 0.0
2018-May-07 08:59S 24°07' W 046°17'0 0.1
2018-May-07 08:20S 24°07' W 046°17'0 0.1
2018-May-07 07:59S 24°07' W 046°17'0 0.2
2018-May-07 07:29S 24°07' W 046°17'0 0.1
2018-May-07 06:59S 24°07' W 046°17'0 0.0
2018-May-07 06:20S 24°07' W 046°17'0 0.0
2018-May-07 05:59S 24°07' W 046°17'0 0.0
2018-May-07 04:05S 24°07' W 046°17'0 0.1
2018-May-07 03:59S 24°07' W 046°17'0 0.1
2018-May-07 03:29S 24°07' W 046°17'0 0.1
2018-May-07 02:56S 24°07' W 046°17'0 0.1
2018-May-07 02:29S 24°07' W 046°17'0 0.1
2018-May-07 01:59S 24°07' W 046°17'0 0.1
2018-May-07 01:29S 24°07' W 046°17'0 0.0
2018-May-07 00:59S 24°07' W 046°17'0 0.0
2018-May-07 00:23S 24°07' W 046°17'0 0.0
2018-May-06 23:59S 24°07' W 046°17'0 0.0
2018-May-06 23:29S 24°07' W 046°17'0 0.0
2018-May-06 22:59S 24°07' W 046°17'0 0.0
2018-May-06 22:23S 24°07' W 046°17'0 0.0
2018-May-06 21:59S 24°07' W 046°17'0 0.0
2018-May-06 21:29S 24°07' W 046°17'0 0.0
2018-May-06 20:59S 24°07' W 046°17'0 0.0
2018-May-06 20:29S 24°07' W 046°17'0 0.0
2018-May-06 19:53S 24°07' W 046°17'0 0.0
2018-May-06 19:29S 24°07' W 046°17'0 0.0
2018-May-06 18:59S 24°07' W 046°17'0 0.0
2018-May-06 18:26S 24°07' W 046°17'0 0.0
2018-May-06 17:59S 24°07' W 046°17'0 0.0
2018-May-06 17:29S 24°07' W 046°17'0 0.0
2018-May-06 16:59S 24°07' W 046°17'0 0.0
2018-May-06 16:29S 24°07' W 046°17'0 0.0
2018-May-06 15:59S 24°07' W 046°17'0 0.0
2018-May-06 15:26S 24°07' W 046°17'0 0.0
2018-May-06 14:59S 24°07' W 046°17'0 0.0
2018-May-06 14:29S 24°07' W 046°17'0 0.0
2018-May-06 13:59S 24°07' W 046°17'0 0.0
2018-May-06 13:29S 24°07' W 046°17'0 0.0
2018-May-06 12:59S 24°07' W 046°17'0 0.0
2018-May-06 12:29S 24°07' W 046°17'0 0.0
2018-May-06 11:59S 24°07' W 046°17'0 0.0
2018-May-06 11:29S 24°07' W 046°17'0 0.0
2018-May-06 10:59S 24°07' W 046°17'0 0.0
2018-May-06 10:26S 24°07' W 046°17'0 0.0
2018-May-06 09:59S 24°07' W 046°17'0 0.0
2018-May-06 09:23S 24°07' W 046°17'0 0.0
2018-May-06 08:59S 24°07' W 046°17'0 0.0
2018-May-06 08:29S 24°07' W 046°17'0 0.0
2018-May-06 07:59S 24°07' W 046°17'0 0.0
2018-May-06 07:29S 24°07' W 046°17'0 0.0
2018-May-06 06:59S 24°07' W 046°17'0 0.0
2018-May-06 06:29S 24°07' W 046°17'0 0.0
2018-May-06 05:59S 24°07' W 046°17'0 0.0
2018-May-06 05:29S 24°07' W 046°17'0 0.0
2018-May-06 04:59S 24°07' W 046°17'0 0.0
2018-May-06 04:29S 24°07' W 046°17'0 0.0
2018-May-06 03:53S 24°07' W 046°17'0 0.0
2018-May-06 03:23S 24°07' W 046°17'0 0.0
2018-May-06 02:59S 24°07' W 046°17'0 0.0
2018-May-06 02:23S 24°07' W 046°17'0 0.0
2018-May-06 01:59S 24°07' W 046°17'0 0.0
2018-May-06 01:29S 24°07' W 046°17'0 0.0
2018-May-06 00:53S 24°07' W 046°17'0 0.0
2018-May-06 00:29S 24°07' W 046°17'0 0.0
2018-May-05 23:59S 24°07' W 046°17'0 0.0
2018-May-05 23:29S 24°07' W 046°17'0 0.0
2018-May-05 22:59S 24°07' W 046°17'0 0.1
2018-May-05 22:30S 24°07' W 046°17'0 0.2
2018-May-05 22:00S 24°07' W 046°17'1 2.0
2018-May-05 21:30S 24°06' W 046°16'4 7.1
2018-May-05 21:00S 24°08' W 046°13'7211.9
2018-May-05 15:00S 24°06' W 044°54'32413.0 180 / 71022.610.8 25.022.8
2018-May-04 14:00S 21°36' W 039°42'   070 / 151024.110.8 31.023.9
Track history (hours):
 
Tides and Currents Weather Stations Pressure Air Temp Water Temp Dewpoint Dewpoint Depression Visibility Wind Speed Wind Dir Waves Ship Positions

Federal Yukina

Last reported at 2018-May-13 15:07 UTC. Time now 2018-May-22 19:30 UTC.
Position S 24°38' W 046°33'.
Warning: this ship's position is 9 days out of date.

Length 200 m; draft 6.1 m.

Type: Cargo ship. MMSI: 477959900.

Date/timePositionNaut miles runAvg speedWind from/ knotsBaromVisibWave heightAir tempDewpointWater temp
2018-May-13 15:07S 24°38' W 046°33'112.8
2018-May-13 15:00S 24°37' W 046°33'612.9
2018-May-13 14:30S 24°31' W 046°30'612.8
2018-May-13 14:00S 24°25' W 046°27'612.9
2018-May-13 13:30S 24°19' W 046°26'612.8
2018-May-13 13:00S 24°12' W 046°24'612.5
2018-May-13 12:30S 24°06' W 046°23'611.3
2018-May-13 12:00S 24°01' W 046°21'4 0.1
2018-May-12 01:05S 23°58' W 046°17'0 0.0
2018-May-12 00:41S 23°58' W 046°17'0 0.0
2018-May-12 00:23S 23°58' W 046°17'  
2018-May-08 16:57S 23°59' W 046°17'3 7.6
2018-May-08 16:30S 24°01' W 046°21'3 6.5
2018-May-08 16:00S 24°04' W 046°22'3 6.2
2018-May-08 15:30S 24°07' W 046°20'3 3.5
2018-May-08 14:44S 24°07' W 046°17'0 0.0
2018-May-08 14:17S 24°07' W 046°17'0 0.0
2018-May-08 13:41S 24°07' W 046°17'0 0.0
2018-May-08 13:26S 24°07' W 046°17'0 0.0
2018-May-08 12:29S 24°07' W 046°17'0 0.0
2018-May-08 11:20S 24°07' W 046°17'0 0.1
2018-May-08 10:59S 24°07' W 046°17'0 0.0
2018-May-08 10:23S 24°07' W 046°17'0 0.1
2018-May-08 09:53S 24°07' W 046°17'0 0.1
2018-May-08 09:20S 24°07' W 046°17'0 0.0
2018-May-08 08:56S 24°07' W 046°17'0 0.0
2018-May-08 08:29S 24°07' W 046°17'0 0.0
2018-May-08 07:44S 24°07' W 046°17'0 0.0
2018-May-08 07:11S 24°07' W 046°17'0 0.1
2018-May-08 06:41S 24°07' W 046°17'0 0.0
2018-May-08 06:29S 24°07' W 046°17'0 0.1
2018-May-08 05:59S 24°07' W 046°17'0 0.0
2018-May-08 05:29S 24°07' W 046°17'0 0.0
2018-May-08 04:59S 24°07' W 046°17'0 0.0
2018-May-08 04:29S 24°07' W 046°17'0 0.0
2018-May-08 03:59S 24°07' W 046°17'0 0.0
2018-May-08 03:29S 24°07' W 046°17'0 0.0
2018-May-08 02:53S 24°07' W 046°17'0 0.0
2018-May-08 02:29S 24°07' W 046°17'0 0.0
2018-May-08 01:59S 24°07' W 046°17'0 0.1
2018-May-08 01:29S 24°07' W 046°17'0 0.0
2018-May-08 00:59S 24°07' W 046°17'0 0.0
2018-May-08 00:29S 24°07' W 046°17'0 0.0
2018-May-07 23:59S 24°07' W 046°17'0 0.0
2018-May-07 23:26S 24°07' W 046°17'0 0.0
2018-May-07 22:59S 24°07' W 046°17'0 0.0
2018-May-07 22:26S 24°07' W 046°17'0 0.0
2018-May-07 21:59S 24°07' W 046°17'0 0.0
2018-May-07 21:29S 24°07' W 046°17'0 0.1
2018-May-07 20:59S 24°07' W 046°17'0 0.0
2018-May-07 20:29S 24°07' W 046°17'0 0.0
2018-May-07 19:53S 24°07' W 046°17'0 0.0
2018-May-07 19:26S 24°07' W 046°17'0 0.0
2018-May-07 18:59S 24°07' W 046°17'0 0.0
2018-May-07 18:29S 24°07' W 046°17'0 0.0
2018-May-07 17:56S 24°07' W 046°17'0 0.0
2018-May-07 17:20S 24°07' W 046°17'0 0.1
2018-May-07 16:59S 24°07' W 046°17'0 0.0
2018-May-07 16:23S 24°07' W 046°17'0 0.0
2018-May-07 15:59S 24°07' W 046°17'0 0.0
2018-May-07 15:29S 24°07' W 046°17'0 0.0
2018-May-07 14:47S 24°07' W 046°17'0 0.0
2018-May-07 14:29S 24°07' W 046°17'0 0.0
2018-May-07 13:59S 24°07' W 046°17'0 0.0
2018-May-07 13:29S 24°07' W 046°17'0 0.0
2018-May-07 12:59S 24°07' W 046°17'0 0.0
2018-May-07 12:29S 24°07' W 046°17'0 0.0
2018-May-07 11:59S 24°07' W 046°17'0 0.0
2018-May-07 11:29S 24°07' W 046°17'0 0.0
2018-May-07 10:53S 24°07' W 046°17'0 0.0
2018-May-07 10:29S 24°07' W 046°17'0 0.0
2018-May-07 09:59S 24°07' W 046°17'0 0.0
2018-May-07 09:26S 24°07' W 046°17'0 0.0
2018-May-07 08:59S 24°07' W 046°17'0 0.1
2018-May-07 08:20S 24°07' W 046°17'0 0.1
2018-May-07 07:59S 24°07' W 046°17'0 0.2
2018-May-07 07:29S 24°07' W 046°17'0 0.1
2018-May-07 06:59S 24°07' W 046°17'0 0.0
2018-May-07 06:20S 24°07' W 046°17'0 0.0
2018-May-07 05:59S 24°07' W 046°17'0 0.0
2018-May-07 04:05S 24°07' W 046°17'0 0.1
2018-May-07 03:59S 24°07' W 046°17'0 0.1
2018-May-07 03:29S 24°07' W 046°17'0 0.1
2018-May-07 02:56S 24°07' W 046°17'0 0.1
2018-May-07 02:29S 24°07' W 046°17'0 0.1
2018-May-07 01:59S 24°07' W 046°17'0 0.1
2018-May-07 01:29S 24°07' W 046°17'0 0.0
2018-May-07 00:59S 24°07' W 046°17'0 0.0
2018-May-07 00:23S 24°07' W 046°17'0 0.0
2018-May-06 23:59S 24°07' W 046°17'0 0.0
2018-May-06 23:29S 24°07' W 046°17'0 0.0
2018-May-06 22:59S 24°07' W 046°17'0 0.0
2018-May-06 22:23S 24°07' W 046°17'0 0.0
2018-May-06 21:59S 24°07' W 046°17'0 0.0
2018-May-06 21:29S 24°07' W 046°17'0 0.0
2018-May-06 20:59S 24°07' W 046°17'0 0.0
2018-May-06 20:29S 24°07' W 046°17'0 0.0
2018-May-06 19:53S 24°07' W 046°17'0 0.0
2018-May-06 19:29S 24°07' W 046°17'0 0.0
2018-May-06 18:59S 24°07' W 046°17'0 0.0
2018-May-06 18:26S 24°07' W 046°17'0 0.0
2018-May-06 17:59S 24°07' W 046°17'0 0.0
2018-May-06 17:29S 24°07' W 046°17'0 0.0
2018-May-06 16:59S 24°07' W 046°17'0 0.0
2018-May-06 16:29S 24°07' W 046°17'0 0.0
2018-May-06 15:59S 24°07' W 046°17'0 0.0
2018-May-06 15:26S 24°07' W 046°17'0 0.0
2018-May-06 14:59S 24°07' W 046°17'0 0.0
2018-May-06 14:29S 24°07' W 046°17'0 0.0
2018-May-06 13:59S 24°07' W 046°17'0 0.0
2018-May-06 13:29S 24°07' W 046°17'0 0.0
2018-May-06 12:59S 24°07' W 046°17'0 0.0
2018-May-06 12:29S 24°07' W 046°17'0 0.0
2018-May-06 11:59S 24°07' W 046°17'0 0.0
2018-May-06 11:29S 24°07' W 046°17'0 0.0
2018-May-06 10:59S 24°07' W 046°17'0 0.0
2018-May-06 10:26S 24°07' W 046°17'0 0.0
2018-May-06 09:59S 24°07' W 046°17'0 0.0
2018-May-06 09:23S 24°07' W 046°17'0 0.0
2018-May-06 08:59S 24°07' W 046°17'0 0.0
2018-May-06 08:29S 24°07' W 046°17'0 0.0
2018-May-06 07:59S 24°07' W 046°17'0 0.0
2018-May-06 07:29S 24°07' W 046°17'0 0.0
2018-May-06 06:59S 24°07' W 046°17'0 0.0
2018-May-06 06:29S 24°07' W 046°17'0 0.0
2018-May-06 05:59S 24°07' W 046°17'0 0.0
2018-May-06 05:29S 24°07' W 046°17'0 0.0
2018-May-06 04:59S 24°07' W 046°17'0 0.0
2018-May-06 04:29S 24°07' W 046°17'0 0.0
2018-May-06 03:53S 24°07' W 046°17'0 0.0
2018-May-06 03:23S 24°07' W 046°17'0 0.0
2018-May-06 02:59S 24°07' W 046°17'0 0.0
2018-May-06 02:23S 24°07' W 046°17'0 0.0
2018-May-06 01:59S 24°07' W 046°17'0 0.0
2018-May-06 01:29S 24°07' W 046°17'0 0.0
2018-May-06 00:53S 24°07' W 046°17'0 0.0
2018-May-06 00:29S 24°07' W 046°17'0 0.0
2018-May-05 23:59S 24°07' W 046°17'0 0.0
2018-May-05 23:29S 24°07' W 046°17'0 0.0
2018-May-05 22:59S 24°07' W 046°17'0 0.1
2018-May-05 22:30S 24°07' W 046°17'0 0.2
2018-May-05 22:00S 24°07' W 046°17'1 2.0
2018-May-05 21:30S 24°06' W 046°16'4 7.1
2018-May-05 21:00S 24°08' W 046°13'7211.9
2018-May-05 15:00S 24°06' W 044°54'32413.0 180 / 71022.610.8 25.022.8
2018-May-04 14:00S 21°36' W 039°42'   070 / 151024.110.8 31.023.9

Dump ship's entire track history